sensor_id;sensor_type;location;lat;lon;timestamp;temperature;humidity
13264;DHT22;6700;51.988;7.646;2022-08-27T00:00:32;18.00;99.90
13264;DHT22;6700;51.988;7.646;2022-08-27T00:02:59;17.90;99.90
13264;DHT22;6700;51.988;7.646;2022-08-27T00:05:28;18.00;99.90
13264;DHT22;6700;51.988;7.646;2022-08-27T00:07:55;18.00;99.90
13264;DHT22;6700;51.988;7.646;2022-08-27T00:10:25;17.90;99.90
13264;DHT22;6700;51.988;7.646;2022-08-27T00:12:52;17.90;99.90
13264;DHT22;6700;51.988;7.646;2022-08-27T00:15:22;17.80;99.90
13264;DHT22;6700;51.988;7.646;2022-08-27T00:17:49;17.90;99.90
13264;DHT22;6700;51.988;7.646;2022-08-27T00:20:18;17.90;99.90
13264;DHT22;6700;51.988;7.646;2022-08-27T00:22:45;17.90;99.90
13264;DHT22;6700;51.988;7.646;2022-08-27T00:25:13;17.90;99.90
13264;DHT22;6700;51.988;7.646;2022-08-27T00:27:40;17.90;99.90
13264;DHT22;6700;51.988;7.646;2022-08-27T00:30:10;17.90;99.90
13264;DHT22;6700;51.988;7.646;2022-08-27T00:32:38;17.90;99.90
13264;DHT22;6700;51.988;7.646;2022-08-27T00:35:06;17.80;99.90
13264;DHT22;6700;51.988;7.646;2022-08-27T00:37:34;17.80;99.90
13264;DHT22;6700;51.988;7.646;2022-08-27T00:40:04;17.80;99.90
13264;DHT22;6700;51.988;7.646;2022-08-27T00:42:31;17.80;99.90
13264;DHT22;6700;51.988;7.646;2022-08-27T00:44:58;17.80;99.90
13264;DHT22;6700;51.988;7.646;2022-08-27T00:47:27;17.80;99.90
13264;DHT22;6700;51.988;7.646;2022-08-27T00:50:06;17.80;99.90
13264;DHT22;6700;51.988;7.646;2022-08-27T00:52:45;17.80;99.90
13264;DHT22;6700;51.988;7.646;2022-08-27T00:55:17;17.80;99.90
13264;DHT22;6700;51.988;7.646;2022-08-27T00:57:48;17.80;99.90
13264;DHT22;6700;51.988;7.646;2022-08-27T01:00:18;17.80;99.90
13264;DHT22;6700;51.988;7.646;2022-08-27T01:02:45;17.70;99.90
13264;DHT22;6700;51.988;7.646;2022-08-27T01:05:19;17.70;99.90
13264;DHT22;6700;51.988;7.646;2022-08-27T01:07:49;17.70;99.90
13264;DHT22;6700;51.988;7.646;2022-08-27T01:10:19;17.70;99.90
13264;DHT22;6700;51.988;7.646;2022-08-27T01:12:47;17.80;99.90
13264;DHT22;6700;51.988;7.646;2022-08-27T01:15:20;17.70;99.90
13264;DHT22;6700;51.988;7.646;2022-08-27T01:17:49;17.70;99.90
13264;DHT22;6700;51.988;7.646;2022-08-27T01:20:27;17.80;99.90
13264;DHT22;6700;51.988;7.646;2022-08-27T01:25:54;17.80;99.90
13264;DHT22;6700;51.988;7.646;2022-08-27T01:28:21;17.80;99.90
13264;DHT22;6700;51.988;7.646;2022-08-27T01:30:54;17.80;99.90
13264;DHT22;6700;51.988;7.646;2022-08-27T01:33:21;17.70;99.90
13264;DHT22;6700;51.988;7.646;2022-08-27T01:35:49;17.80;99.90
13264;DHT22;6700;51.988;7.646;2022-08-27T01:38:19;17.80;99.90
13264;DHT22;6700;51.988;7.646;2022-08-27T01:40:58;17.80;99.90
13264;DHT22;6700;51.988;7.646;2022-08-27T01:43:26;17.80;99.90
13264;DHT22;6700;51.988;7.646;2022-08-27T01:45:53;17.80;99.90
13264;DHT22;6700;51.988;7.646;2022-08-27T01:48:21;17.80;99.90
13264;DHT22;6700;51.988;7.646;2022-08-27T01:50:48;17.80;99.90
13264;DHT22;6700;51.988;7.646;2022-08-27T01:53:21;17.80;99.90
13264;DHT22;6700;51.988;7.646;2022-08-27T01:55:49;17.90;99.90
13264;DHT22;6700;51.988;7.646;2022-08-27T01:58:18;17.80;99.90
13264;DHT22;6700;51.988;7.646;2022-08-27T02:00:48;17.90;99.90
13264;DHT22;6700;51.988;7.646;2022-08-27T02:03:22;17.90;99.90
13264;DHT22;6700;51.988;7.646;2022-08-27T02:05:49;17.90;99.90
13264;DHT22;6700;51.988;7.646;2022-08-27T02:08:17;17.80;99.90
13264;DHT22;6700;51.988;7.646;2022-08-27T02:10:45;17.90;99.90
13264;DHT22;6700;51.988;7.646;2022-08-27T02:13:13;17.90;99.90
13264;DHT22;6700;51.988;7.646;2022-08-27T02:15:42;17.80;99.90
13264;DHT22;6700;51.988;7.646;2022-08-27T02:18:10;17.70;99.90
13264;DHT22;6700;51.988;7.646;2022-08-27T02:20:37;17.80;99.90
13264;DHT22;6700;51.988;7.646;2022-08-27T02:23:04;17.70;99.90
13264;DHT22;6700;51.988;7.646;2022-08-27T02:25:32;17.70;99.90
13264;DHT22;6700;51.988;7.646;2022-08-27T02:27:59;17.70;99.90
13264;DHT22;6700;51.988;7.646;2022-08-27T02:30:29;17.70;99.90
13264;DHT22;6700;51.988;7.646;2022-08-27T02:32:59;17.80;99.90
13264;DHT22;6700;51.988;7.646;2022-08-27T02:35:28;17.80;99.90
13264;DHT22;6700;51.988;7.646;2022-08-27T02:37:55;17.80;99.90
13264;DHT22;6700;51.988;7.646;2022-08-27T02:40:23;17.80;99.90
13264;DHT22;6700;51.988;7.646;2022-08-27T02:42:51;17.70;99.90
13264;DHT22;6700;51.988;7.646;2022-08-27T02:45:18;17.60;99.90
13264;DHT22;6700;51.988;7.646;2022-08-27T02:47:46;17.60;99.90
13264;DHT22;6700;51.988;7.646;2022-08-27T02:50:14;17.60;99.90
13264;DHT22;6700;51.988;7.646;2022-08-27T02:52:42;17.60;99.90
13264;DHT22;6700;51.988;7.646;2022-08-27T02:55:12;17.60;99.90
13264;DHT22;6700;51.988;7.646;2022-08-27T02:57:43;17.60;99.90
13264;DHT22;6700;51.988;7.646;2022-08-27T03:00:13;17.70;99.90
13264;DHT22;6700;51.988;7.646;2022-08-27T03:02:40;17.60;99.90
13264;DHT22;6700;51.988;7.646;2022-08-27T03:05:08;17.60;99.90
13264;DHT22;6700;51.988;7.646;2022-08-27T03:07:36;17.60;99.90
13264;DHT22;6700;51.988;7.646;2022-08-27T03:10:04;17.60;99.90
13264;DHT22;6700;51.988;7.646;2022-08-27T03:12:31;17.70;99.90
13264;DHT22;6700;51.988;7.646;2022-08-27T03:14:59;17.70;99.90
13264;DHT22;6700;51.988;7.646;2022-08-27T03:17:26;17.70;99.90
13264;DHT22;6700;51.988;7.646;2022-08-27T03:20:12;17.80;99.90
13264;DHT22;6700;51.988;7.646;2022-08-27T03:22:39;17.70;99.90
13264;DHT22;6700;51.988;7.646;2022-08-27T03:25:07;17.70;99.90
13264;DHT22;6700;51.988;7.646;2022-08-27T03:27:34;17.70;99.90
13264;DHT22;6700;51.988;7.646;2022-08-27T03:30:05;17.70;99.90
13264;DHT22;6700;51.988;7.646;2022-08-27T03:32:33;17.70;99.90
13264;DHT22;6700;51.988;7.646;2022-08-27T03:35:00;17.70;99.90
13264;DHT22;6700;51.988;7.646;2022-08-27T03:37:27;17.70;99.90
13264;DHT22;6700;51.988;7.646;2022-08-27T03:39:54;17.70;99.90
13264;DHT22;6700;51.988;7.646;2022-08-27T03:42:21;17.70;99.90
13264;DHT22;6700;51.988;7.646;2022-08-27T03:44:48;17.70;99.90
13264;DHT22;6700;51.988;7.646;2022-08-27T03:47:15;17.70;99.90
13264;DHT22;6700;51.988;7.646;2022-08-27T03:49:42;17.70;99.90
13264;DHT22;6700;51.988;7.646;2022-08-27T03:52:09;17.70;99.90
13264;DHT22;6700;51.988;7.646;2022-08-27T03:54:37;17.70;99.90
13264;DHT22;6700;51.988;7.646;2022-08-27T03:57:04;17.70;99.90
13264;DHT22;6700;51.988;7.646;2022-08-27T03:59:32;17.70;99.90
13264;DHT22;6700;51.988;7.646;2022-08-27T04:01:59;17.70;99.90
13264;DHT22;6700;51.988;7.646;2022-08-27T04:04:27;17.70;99.90
13264;DHT22;6700;51.988;7.646;2022-08-27T04:06:54;17.70;99.90
13264;DHT22;6700;51.988;7.646;2022-08-27T04:09:24;17.70;99.90
13264;DHT22;6700;51.988;7.646;2022-08-27T04:11:51;17.70;99.90
13264;DHT22;6700;51.988;7.646;2022-08-27T04:14:18;17.70;99.90
13264;DHT22;6700;51.988;7.646;2022-08-27T04:16:54;17.70;99.90
13264;DHT22;6700;51.988;7.646;2022-08-27T04:19:23;17.70;99.90
13264;DHT22;6700;51.988;7.646;2022-08-27T04:21:57;17.70;99.90
13264;DHT22;6700;51.988;7.646;2022-08-27T04:24:24;17.70;99.90
13264;DHT22;6700;51.988;7.646;2022-08-27T04:26:51;17.70;99.90
13264;DHT22;6700;51.988;7.646;2022-08-27T04:29:17;17.70;99.90
13264;DHT22;6700;51.988;7.646;2022-08-27T04:31:44;17.70;99.90
13264;DHT22;6700;51.988;7.646;2022-08-27T04:34:11;17.70;99.90
13264;DHT22;6700;51.988;7.646;2022-08-27T04:36:38;17.70;99.90
13264;DHT22;6700;51.988;7.646;2022-08-27T04:39:05;17.70;99.90
13264;DHT22;6700;51.988;7.646;2022-08-27T04:41:31;17.70;99.90
13264;DHT22;6700;51.988;7.646;2022-08-27T04:44:05;17.70;99.90
13264;DHT22;6700;51.988;7.646;2022-08-27T04:46:35;17.70;99.90
13264;DHT22;6700;51.988;7.646;2022-08-27T04:49:10;17.70;99.90
13264;DHT22;6700;51.988;7.646;2022-08-27T04:51:39;17.70;99.90
13264;DHT22;6700;51.988;7.646;2022-08-27T04:54:09;17.60;99.90
13264;DHT22;6700;51.988;7.646;2022-08-27T04:56:37;17.70;99.90
13264;DHT22;6700;51.988;7.646;2022-08-27T04:59:06;17.70;99.90
13264;DHT22;6700;51.988;7.646;2022-08-27T05:01:33;17.70;99.90
13264;DHT22;6700;51.988;7.646;2022-08-27T05:04:01;17.70;99.90
13264;DHT22;6700;51.988;7.646;2022-08-27T05:06:28;17.70;99.90
13264;DHT22;6700;51.988;7.646;2022-08-27T05:08:56;17.70;99.90
13264;DHT22;6700;51.988;7.646;2022-08-27T05:11:26;17.60;99.90
13264;DHT22;6700;51.988;7.646;2022-08-27T05:13:58;17.70;99.90
13264;DHT22;6700;51.988;7.646;2022-08-27T05:16:24;17.70;99.90
13264;DHT22;6700;51.988;7.646;2022-08-27T05:18:52;17.70;99.90
13264;DHT22;6700;51.988;7.646;2022-08-27T05:21:30;17.70;99.90
13264;DHT22;6700;51.988;7.646;2022-08-27T05:23:59;17.70;99.90
13264;DHT22;6700;51.988;7.646;2022-08-27T05:26:27;17.70;99.90
13264;DHT22;6700;51.988;7.646;2022-08-27T05:28:54;17.70;99.90
13264;DHT22;6700;51.988;7.646;2022-08-27T05:31:21;17.70;99.90
13264;DHT22;6700;51.988;7.646;2022-08-27T05:33:48;17.70;99.90
13264;DHT22;6700;51.988;7.646;2022-08-27T05:36:21;17.70;99.90
13264;DHT22;6700;51.988;7.646;2022-08-27T05:38:48;17.80;99.90
13264;DHT22;6700;51.988;7.646;2022-08-27T05:41:21;17.70;99.90
13264;DHT22;6700;51.988;7.646;2022-08-27T05:43:59;17.80;99.90
13264;DHT22;6700;51.988;7.646;2022-08-27T05:46:27;17.80;99.90
13264;DHT22;6700;51.988;7.646;2022-08-27T05:48:57;17.80;99.90
13264;DHT22;6700;51.988;7.646;2022-08-27T05:51:27;17.80;99.90
13264;DHT22;6700;51.988;7.646;2022-08-27T05:53:55;17.80;99.90
13264;DHT22;6700;51.988;7.646;2022-08-27T05:56:25;17.80;99.90
13264;DHT22;6700;51.988;7.646;2022-08-27T05:58:52;17.80;99.90
13264;DHT22;6700;51.988;7.646;2022-08-27T06:01:44;17.70;99.90
13264;DHT22;6700;51.988;7.646;2022-08-27T06:04:12;17.70;99.90
13264;DHT22;6700;51.988;7.646;2022-08-27T06:06:44;17.70;99.90
13264;DHT22;6700;51.988;7.646;2022-08-27T06:09:13;17.70;99.90
13264;DHT22;6700;51.988;7.646;2022-08-27T06:11:41;17.70;99.90
13264;DHT22;6700;51.988;7.646;2022-08-27T06:14:08;17.80;99.90
13264;DHT22;6700;51.988;7.646;2022-08-27T06:16:36;17.80;99.90
13264;DHT22;6700;51.988;7.646;2022-08-27T06:19:04;17.80;99.90
13264;DHT22;6700;51.988;7.646;2022-08-27T06:21:31;17.80;99.90
13264;DHT22;6700;51.988;7.646;2022-08-27T06:23:59;17.80;99.90
13264;DHT22;6700;51.988;7.646;2022-08-27T06:26:26;17.80;99.90
13264;DHT22;6700;51.988;7.646;2022-08-27T06:28:53;17.90;99.90
13264;DHT22;6700;51.988;7.646;2022-08-27T06:31:24;17.90;99.90
13264;DHT22;6700;51.988;7.646;2022-08-27T06:33:52;17.90;99.90
13264;DHT22;6700;51.988;7.646;2022-08-27T06:36:22;17.90;99.90
13264;DHT22;6700;51.988;7.646;2022-08-27T06:38:52;17.90;99.90
13264;DHT22;6700;51.988;7.646;2022-08-27T06:41:21;17.90;99.90
13264;DHT22;6700;51.988;7.646;2022-08-27T06:43:50;17.90;99.90
13264;DHT22;6700;51.988;7.646;2022-08-27T06:46:19;17.90;99.90
13264;DHT22;6700;51.988;7.646;2022-08-27T06:48:46;18.00;99.90
13264;DHT22;6700;51.988;7.646;2022-08-27T06:51:16;18.00;99.90
13264;DHT22;6700;51.988;7.646;2022-08-27T06:53:44;18.10;99.90
13264;DHT22;6700;51.988;7.646;2022-08-27T06:56:14;18.20;99.90
13264;DHT22;6700;51.988;7.646;2022-08-27T06:58:41;18.20;99.90
13264;DHT22;6700;51.988;7.646;2022-08-27T07:01:18;18.20;99.90
13264;DHT22;6700;51.988;7.646;2022-08-27T07:03:46;18.40;99.90
13264;DHT22;6700;51.988;7.646;2022-08-27T07:06:15;18.50;99.90
13264;DHT22;6700;51.988;7.646;2022-08-27T07:08:43;18.60;99.90
13264;DHT22;6700;51.988;7.646;2022-08-27T07:11:20;18.60;99.90
13264;DHT22;6700;51.988;7.646;2022-08-27T07:13:48;18.70;99.90
13264;DHT22;6700;51.988;7.646;2022-08-27T07:16:19;18.70;99.90
13264;DHT22;6700;51.988;7.646;2022-08-27T07:18:53;18.70;99.90
13264;DHT22;6700;51.988;7.646;2022-08-27T07:21:21;18.70;99.90
13264;DHT22;6700;51.988;7.646;2022-08-27T07:23:50;18.60;99.90
13264;DHT22;6700;51.988;7.646;2022-08-27T07:26:18;18.80;99.90
13264;DHT22;6700;51.988;7.646;2022-08-27T07:28:46;18.80;99.90
13264;DHT22;6700;51.988;7.646;2022-08-27T07:31:17;18.90;99.90
13264;DHT22;6700;51.988;7.646;2022-08-27T07:33:44;19.10;99.90
13264;DHT22;6700;51.988;7.646;2022-08-27T07:36:19;19.20;99.90
13264;DHT22;6700;51.988;7.646;2022-08-27T07:38:47;19.40;99.90
13264;DHT22;6700;51.988;7.646;2022-08-27T07:41:30;19.60;99.90
13264;DHT22;6700;51.988;7.646;2022-08-27T07:43:59;19.80;99.90
13264;DHT22;6700;51.988;7.646;2022-08-27T07:46:45;20.00;99.90
13264;DHT22;6700;51.988;7.646;2022-08-27T07:49:15;20.10;99.90
13264;DHT22;6700;51.988;7.646;2022-08-27T07:51:42;20.20;99.90
13264;DHT22;6700;51.988;7.646;2022-08-27T07:54:09;20.10;99.90
13264;DHT22;6700;51.988;7.646;2022-08-27T07:56:36;20.00;99.90
13264;DHT22;6700;51.988;7.646;2022-08-27T07:59:03;20.20;99.90
13264;DHT22;6700;51.988;7.646;2022-08-27T08:01:30;20.40;99.90
13264;DHT22;6700;51.988;7.646;2022-08-27T08:03:57;20.50;99.90
13264;DHT22;6700;51.988;7.646;2022-08-27T08:06:23;20.50;99.90
13264;DHT22;6700;51.988;7.646;2022-08-27T08:08:50;20.40;99.90
13264;DHT22;6700;51.988;7.646;2022-08-27T08:11:18;20.10;99.90
13264;DHT22;6700;51.988;7.646;2022-08-27T08:13:46;19.90;99.90
13264;DHT22;6700;51.988;7.646;2022-08-27T08:16:14;19.80;99.90
13264;DHT22;6700;51.988;7.646;2022-08-27T08:18:41;19.70;99.90
13264;DHT22;6700;51.988;7.646;2022-08-27T08:21:13;19.60;99.90
13264;DHT22;6700;51.988;7.646;2022-08-27T08:23:41;19.60;99.90
13264;DHT22;6700;51.988;7.646;2022-08-27T08:26:09;19.60;99.90
13264;DHT22;6700;51.988;7.646;2022-08-27T08:28:38;19.50;99.90
13264;DHT22;6700;51.988;7.646;2022-08-27T08:31:05;19.50;99.90
13264;DHT22;6700;51.988;7.646;2022-08-27T08:33:34;19.50;99.90
13264;DHT22;6700;51.988;7.646;2022-08-27T08:36:06;19.50;99.90
13264;DHT22;6700;51.988;7.646;2022-08-27T08:38:34;19.50;99.90
13264;DHT22;6700;51.988;7.646;2022-08-27T08:41:01;19.40;99.90
13264;DHT22;6700;51.988;7.646;2022-08-27T08:46:15;19.40;99.90
13264;DHT22;6700;51.988;7.646;2022-08-27T08:48:47;19.40;99.90
13264;DHT22;6700;51.988;7.646;2022-08-27T08:51:37;19.40;99.90
13264;DHT22;6700;51.988;7.646;2022-08-27T08:54:16;19.40;99.90
13264;DHT22;6700;51.988;7.646;2022-08-27T08:56:56;19.50;99.90
13264;DHT22;6700;51.988;7.646;2022-08-27T08:59:37;19.60;99.90
13264;DHT22;6700;51.988;7.646;2022-08-27T09:02:09;19.70;99.90
13264;DHT22;6700;51.988;7.646;2022-08-27T09:04:41;19.80;99.90
13264;DHT22;6700;51.988;7.646;2022-08-27T09:12:33;19.80;99.90
13264;DHT22;6700;51.988;7.646;2022-08-27T09:15:21;19.80;99.90
13264;DHT22;6700;51.988;7.646;2022-08-27T09:17:48;19.70;99.90
13264;DHT22;6700;51.988;7.646;2022-08-27T09:20:18;19.70;99.90
13264;DHT22;6700;51.988;7.646;2022-08-27T09:25:40;19.60;99.90
13264;DHT22;6700;51.988;7.646;2022-08-27T09:28:13;19.60;99.90
13264;DHT22;6700;51.988;7.646;2022-08-27T09:31:09;19.60;99.90
13264;DHT22;6700;51.988;7.646;2022-08-27T09:33:37;19.60;99.90
13264;DHT22;6700;51.988;7.646;2022-08-27T09:36:23;19.60;99.90
13264;DHT22;6700;51.988;7.646;2022-08-27T09:38:59;19.60;99.90
13264;DHT22;6700;51.988;7.646;2022-08-27T09:41:34;19.60;99.90
13264;DHT22;6700;51.988;7.646;2022-08-27T09:44:08;19.50;99.90
13264;DHT22;6700;51.988;7.646;2022-08-27T09:46:35;19.60;99.90
13264;DHT22;6700;51.988;7.646;2022-08-27T09:49:13;19.60;99.90
13264;DHT22;6700;51.988;7.646;2022-08-27T09:51:43;19.70;99.90
13264;DHT22;6700;51.988;7.646;2022-08-27T09:54:46;19.70;99.90
13264;DHT22;6700;51.988;7.646;2022-08-27T09:57:12;19.70;99.90
13264;DHT22;6700;51.988;7.646;2022-08-27T09:59:51;19.70;99.90
13264;DHT22;6700;51.988;7.646;2022-08-27T10:02:21;19.70;99.90
13264;DHT22;6700;51.988;7.646;2022-08-27T10:04:50;19.60;99.90
13264;DHT22;6700;51.988;7.646;2022-08-27T10:07:50;19.60;99.90
13264;DHT22;6700;51.988;7.646;2022-08-27T10:10:32;19.60;99.90
13264;DHT22;6700;51.988;7.646;2022-08-27T10:13:14;19.70;99.90
13264;DHT22;6700;51.988;7.646;2022-08-27T10:18:30;19.90;99.90
13264;DHT22;6700;51.988;7.646;2022-08-27T10:22:07;19.80;99.90
13264;DHT22;6700;51.988;7.646;2022-08-27T10:24:33;19.80;99.90
13264;DHT22;6700;51.988;7.646;2022-08-27T10:30:06;20.00;99.90
13264;DHT22;6700;51.988;7.646;2022-08-27T10:35:18;20.10;99.90
13264;DHT22;6700;51.988;7.646;2022-08-27T10:38:16;20.10;99.90
13264;DHT22;6700;51.988;7.646;2022-08-27T10:52:21;20.30;99.90
13264;DHT22;6700;51.988;7.646;2022-08-27T10:55:11;20.40;99.90
13264;DHT22;6700;51.988;7.646;2022-08-27T11:01:18;20.40;99.90
13264;DHT22;6700;51.988;7.646;2022-08-27T11:03:25;20.40;99.90
13264;DHT22;6700;51.988;7.646;2022-08-27T11:06:02;20.40;99.90
13264;DHT22;6700;51.988;7.646;2022-08-27T11:08:37;20.40;99.90
13264;DHT22;6700;51.988;7.646;2022-08-27T11:11:10;20.40;99.90
13264;DHT22;6700;51.988;7.646;2022-08-27T11:13:58;20.40;99.90
13264;DHT22;6700;51.988;7.646;2022-08-27T11:16:42;20.50;99.90
13264;DHT22;6700;51.988;7.646;2022-08-27T11:19:22;20.40;99.90
13264;DHT22;6700;51.988;7.646;2022-08-27T11:22:28;20.40;99.90
13264;DHT22;6700;51.988;7.646;2022-08-27T11:27:50;20.40;99.90
13264;DHT22;6700;51.988;7.646;2022-08-27T11:30:24;20.40;99.90
13264;DHT22;6700;51.988;7.646;2022-08-27T11:33:42;20.30;99.90
13264;DHT22;6700;51.988;7.646;2022-08-27T11:42:00;20.50;99.90
13264;DHT22;6700;51.988;7.646;2022-08-27T11:44:30;20.70;99.90
13264;DHT22;6700;51.988;7.646;2022-08-27T11:47:14;20.80;99.90
13264;DHT22;6700;51.988;7.646;2022-08-27T11:49:56;21.00;99.90
13264;DHT22;6700;51.988;7.646;2022-08-27T11:52:39;21.10;99.90
13264;DHT22;6700;51.988;7.646;2022-08-27T11:55:30;21.10;99.90
13264;DHT22;6700;51.988;7.646;2022-08-27T11:58:09;21.10;99.90
13264;DHT22;6700;51.988;7.646;2022-08-27T12:00:50;21.10;99.90
13264;DHT22;6700;51.988;7.646;2022-08-27T12:06:08;20.90;99.90
13264;DHT22;6700;51.988;7.646;2022-08-27T12:08:36;20.80;99.90
13264;DHT22;6700;51.988;7.646;2022-08-27T12:19:02;21.10;99.90
13264;DHT22;6700;51.988;7.646;2022-08-27T12:29:55;21.30;99.90
13264;DHT22;6700;51.988;7.646;2022-08-27T12:32:32;21.50;99.90
13264;DHT22;6700;51.988;7.646;2022-08-27T12:40:29;21.60;99.90
13264;DHT22;6700;51.988;7.646;2022-08-27T12:43:09;21.60;99.90
13264;DHT22;6700;51.988;7.646;2022-08-27T12:45:47;21.50;99.90
13264;DHT22;6700;51.988;7.646;2022-08-27T12:48:19;21.40;99.90
13264;DHT22;6700;51.988;7.646;2022-08-27T12:50:54;21.30;99.90
13264;DHT22;6700;51.988;7.646;2022-08-27T12:53:38;21.40;99.90
13264;DHT22;6700;51.988;7.646;2022-08-27T12:58:49;21.50;99.90
13264;DHT22;6700;51.988;7.646;2022-08-27T13:03:56;21.70;99.90
13264;DHT22;6700;51.988;7.646;2022-08-27T13:06:33;21.80;99.90
13264;DHT22;6700;51.988;7.646;2022-08-27T13:09:04;21.90;99.90
13264;DHT22;6700;51.988;7.646;2022-08-27T13:11:34;22.10;99.90
13264;DHT22;6700;51.988;7.646;2022-08-27T13:14:17;22.10;99.90
13264;DHT22;6700;51.988;7.646;2022-08-27T13:16:56;22.20;99.90
13264;DHT22;6700;51.988;7.646;2022-08-27T13:19:28;22.40;99.90
13264;DHT22;6700;51.988;7.646;2022-08-27T13:21:58;22.30;99.90
13264;DHT22;6700;51.988;7.646;2022-08-27T13:24:31;22.30;99.90
13264;DHT22;6700;51.988;7.646;2022-08-27T13:27:02;22.10;99.90
13264;DHT22;6700;51.988;7.646;2022-08-27T13:29:29;22.00;99.90
13264;DHT22;6700;51.988;7.646;2022-08-27T13:31:58;21.90;99.90
13264;DHT22;6700;51.988;7.646;2022-08-27T13:34:27;21.80;99.90
13264;DHT22;6700;51.988;7.646;2022-08-27T13:36:59;21.70;99.90
13264;DHT22;6700;51.988;7.646;2022-08-27T13:39:27;21.60;99.90
13264;DHT22;6700;51.988;7.646;2022-08-27T13:41:58;21.60;99.90
13264;DHT22;6700;51.988;7.646;2022-08-27T13:44:26;21.60;99.90
13264;DHT22;6700;51.988;7.646;2022-08-27T13:49:28;21.70;99.90
13264;DHT22;6700;51.988;7.646;2022-08-27T13:52:05;21.80;99.90
13264;DHT22;6700;51.988;7.646;2022-08-27T13:54:33;21.90;99.90
13264;DHT22;6700;51.988;7.646;2022-08-27T13:57:08;22.00;99.90
13264;DHT22;6700;51.988;7.646;2022-08-27T13:59:39;21.90;99.90
13264;DHT22;6700;51.988;7.646;2022-08-27T14:09:44;22.00;99.90
13264;DHT22;6700;51.988;7.646;2022-08-27T14:12:36;22.00;99.90
13264;DHT22;6700;51.988;7.646;2022-08-27T14:18:18;21.90;99.90
13264;DHT22;6700;51.988;7.646;2022-08-27T14:20:50;21.90;99.90
13264;DHT22;6700;51.988;7.646;2022-08-27T14:23:17;22.00;99.90
13264;DHT22;6700;51.988;7.646;2022-08-27T14:25:44;22.00;99.90
13264;DHT22;6700;51.988;7.646;2022-08-27T14:28:11;21.90;99.90
13264;DHT22;6700;51.988;7.646;2022-08-27T14:30:38;22.00;99.90
13264;DHT22;6700;51.988;7.646;2022-08-27T14:33:05;21.90;99.90
13264;DHT22;6700;51.988;7.646;2022-08-27T14:35:34;22.00;99.90
13264;DHT22;6700;51.988;7.646;2022-08-27T14:38:11;21.90;99.90
13264;DHT22;6700;51.988;7.646;2022-08-27T14:40:41;22.00;99.90
13264;DHT22;6700;51.988;7.646;2022-08-27T14:43:08;21.90;99.90
13264;DHT22;6700;51.988;7.646;2022-08-27T14:45:37;21.90;99.90
13264;DHT22;6700;51.988;7.646;2022-08-27T14:48:11;21.90;99.90
13264;DHT22;6700;51.988;7.646;2022-08-27T14:50:44;21.90;99.90
13264;DHT22;6700;51.988;7.646;2022-08-27T14:53:11;21.90;99.90
13264;DHT22;6700;51.988;7.646;2022-08-27T14:55:38;21.90;99.90
13264;DHT22;6700;51.988;7.646;2022-08-27T14:58:05;21.80;99.90
13264;DHT22;6700;51.988;7.646;2022-08-27T15:00:32;21.70;99.90
13264;DHT22;6700;51.988;7.646;2022-08-27T15:02:59;21.70;99.90
13264;DHT22;6700;51.988;7.646;2022-08-27T15:05:26;21.60;99.90
13264;DHT22;6700;51.988;7.646;2022-08-27T15:07:53;21.60;99.90
13264;DHT22;6700;51.988;7.646;2022-08-27T15:10:23;21.50;99.90
13264;DHT22;6700;51.988;7.646;2022-08-27T15:12:51;21.50;99.90
13264;DHT22;6700;51.988;7.646;2022-08-27T15:15:19;21.50;99.90
13264;DHT22;6700;51.988;7.646;2022-08-27T15:17:47;21.50;99.90
13264;DHT22;6700;51.988;7.646;2022-08-27T15:20:16;21.50;99.90
13264;DHT22;6700;51.988;7.646;2022-08-27T15:22:48;21.60;99.90
13264;DHT22;6700;51.988;7.646;2022-08-27T15:25:21;21.50;99.90
13264;DHT22;6700;51.988;7.646;2022-08-27T15:27:48;21.50;99.90
13264;DHT22;6700;51.988;7.646;2022-08-27T15:30:17;21.50;99.90
13264;DHT22;6700;51.988;7.646;2022-08-27T15:32:48;21.40;99.90
13264;DHT22;6700;51.988;7.646;2022-08-27T15:35:18;21.40;99.90
13264;DHT22;6700;51.988;7.646;2022-08-27T15:37:45;21.50;99.90
13264;DHT22;6700;51.988;7.646;2022-08-27T15:40:13;21.50;99.90
13264;DHT22;6700;51.988;7.646;2022-08-27T15:42:41;21.50;99.90
13264;DHT22;6700;51.988;7.646;2022-08-27T15:45:09;21.60;99.90
13264;DHT22;6700;51.988;7.646;2022-08-27T15:47:36;21.50;99.90
13264;DHT22;6700;51.988;7.646;2022-08-27T15:50:04;21.60;99.90
13264;DHT22;6700;51.988;7.646;2022-08-27T15:52:32;21.60;99.90
13264;DHT22;6700;51.988;7.646;2022-08-27T15:55:15;21.60;99.90
13264;DHT22;6700;51.988;7.646;2022-08-27T15:57:44;21.60;99.90
13264;DHT22;6700;51.988;7.646;2022-08-27T16:00:11;21.60;99.90
13264;DHT22;6700;51.988;7.646;2022-08-27T16:02:39;21.60;99.90
13264;DHT22;6700;51.988;7.646;2022-08-27T16:05:06;21.60;99.90
13264;DHT22;6700;51.988;7.646;2022-08-27T16:07:33;21.60;99.90
13264;DHT22;6700;51.988;7.646;2022-08-27T16:10:00;21.60;99.90
13264;DHT22;6700;51.988;7.646;2022-08-27T16:12:27;21.50;99.90
13264;DHT22;6700;51.988;7.646;2022-08-27T16:14:55;21.50;99.90
13264;DHT22;6700;51.988;7.646;2022-08-27T16:17:22;21.60;99.90
13264;DHT22;6700;51.988;7.646;2022-08-27T16:19:49;21.50;99.90
13264;DHT22;6700;51.988;7.646;2022-08-27T16:22:16;21.40;99.90
13264;DHT22;6700;51.988;7.646;2022-08-27T16:24:43;21.40;99.90
13264;DHT22;6700;51.988;7.646;2022-08-27T16:27:10;21.30;99.90
13264;DHT22;6700;51.988;7.646;2022-08-27T16:29:37;21.20;99.90
13264;DHT22;6700;51.988;7.646;2022-08-27T16:32:05;21.20;99.90
13264;DHT22;6700;51.988;7.646;2022-08-27T16:34:33;21.20;99.90
13264;DHT22;6700;51.988;7.646;2022-08-27T16:37:00;21.10;99.90
13264;DHT22;6700;51.988;7.646;2022-08-27T16:39:27;21.20;99.90
13264;DHT22;6700;51.988;7.646;2022-08-27T16:42:01;21.10;99.90
13264;DHT22;6700;51.988;7.646;2022-08-27T16:44:29;21.10;99.90
13264;DHT22;6700;51.988;7.646;2022-08-27T16:46:57;21.10;99.90
13264;DHT22;6700;51.988;7.646;2022-08-27T16:49:23;21.10;99.90
13264;DHT22;6700;51.988;7.646;2022-08-27T16:52:09;21.10;99.90
13264;DHT22;6700;51.988;7.646;2022-08-27T16:54:36;21.10;99.90
13264;DHT22;6700;51.988;7.646;2022-08-27T16:57:03;21.10;99.90
13264;DHT22;6700;51.988;7.646;2022-08-27T16:59:30;21.10;99.90
13264;DHT22;6700;51.988;7.646;2022-08-27T17:01:57;21.10;99.90
13264;DHT22;6700;51.988;7.646;2022-08-27T17:04:24;21.10;99.90
13264;DHT22;6700;51.988;7.646;2022-08-27T17:07:00;21.00;99.90
13264;DHT22;6700;51.988;7.646;2022-08-27T17:09:27;21.10;99.90
13264;DHT22;6700;51.988;7.646;2022-08-27T17:11:55;21.00;99.90
13264;DHT22;6700;51.988;7.646;2022-08-27T17:14:23;21.00;99.90
13264;DHT22;6700;51.988;7.646;2022-08-27T17:16:50;21.00;99.90
13264;DHT22;6700;51.988;7.646;2022-08-27T17:19:19;20.90;99.90
13264;DHT22;6700;51.988;7.646;2022-08-27T17:21:47;20.80;99.90
13264;DHT22;6700;51.988;7.646;2022-08-27T17:24:15;20.80;99.90
13264;DHT22;6700;51.988;7.646;2022-08-27T17:26:42;20.80;99.90
13264;DHT22;6700;51.988;7.646;2022-08-27T17:29:09;20.70;99.90
13264;DHT22;6700;51.988;7.646;2022-08-27T17:31:38;20.80;99.90
13264;DHT22;6700;51.988;7.646;2022-08-27T17:34:12;20.70;99.90
13264;DHT22;6700;51.988;7.646;2022-08-27T17:36:40;20.70;99.90